createdAt,value
2018-11-07T00:02:19.104Z,98859.18
2018-11-07T00:04:51.265Z,98871.09
2018-11-07T00:07:23.428Z,98862.77
2018-11-07T00:09:54.772Z,98859.81
2018-11-07T00:12:27.344Z,98858.30
2018-11-07T00:14:59.271Z,98863.32
2018-11-07T00:17:31.251Z,98869.41
2018-11-07T00:20:03.666Z,98772.11
2018-11-07T00:22:35.131Z,98858.97
2018-11-07T00:25:07.470Z,98869.65
2018-11-07T00:27:39.493Z,98868.55
2018-11-07T00:30:11.829Z,98872.16
2018-11-07T00:32:43.859Z,98873.09
2018-11-07T00:35:15.829Z,98869.19
2018-11-07T00:37:47.651Z,98870.48
2018-11-07T00:40:19.834Z,98866.57
2018-11-07T00:42:51.503Z,98649.25
2018-11-07T00:45:23.486Z,98859.75
2018-11-07T00:47:55.560Z,98862.12
2018-11-07T00:50:27.107Z,98867.95
2018-11-07T00:52:58.595Z,98866.50
2018-11-07T00:55:30.287Z,98869.81
2018-11-07T00:58:02.027Z,98870.48
2018-11-07T01:00:34.837Z,98873.45
2018-11-07T01:03:06.780Z,98875.39
2018-11-07T01:05:38.339Z,98878.59
2018-11-07T01:08:09.646Z,98871.27
2018-11-07T01:10:41.507Z,98872.64
2018-11-07T01:13:13.128Z,98865.41
2018-11-07T01:15:44.512Z,98863.39
2018-11-07T01:18:15.752Z,98772.20
2018-11-07T01:20:47.414Z,98863.45
2018-11-07T01:23:19.233Z,98867.27
2018-11-07T01:25:50.488Z,98855.27
2018-11-07T01:28:22.697Z,98847.94
2018-11-07T01:30:54.538Z,98845.92
2018-11-07T01:33:26.349Z,98753.66
2018-11-07T01:35:59.019Z,98853.34
2018-11-07T01:38:30.339Z,98856.73
2018-11-07T01:41:02.791Z,98854.66
2018-11-07T01:43:34.845Z,98845.21
2018-11-07T01:46:08.418Z,98852.81
2018-11-07T01:48:40.030Z,98844.20
2018-11-07T01:51:11.542Z,98842.59
2018-11-07T01:53:43.024Z,98841.80
2018-11-07T01:56:14.434Z,98834.16
2018-11-07T01:58:45.899Z,98837.99
2018-11-07T02:01:17.940Z,98830.59
2018-11-07T02:03:49.646Z,98835.22
2018-11-07T02:06:21.350Z,98843.30
2018-11-07T02:08:53.528Z,98829.64
2018-11-07T02:11:25.565Z,98829.44
2018-11-07T02:13:57.659Z,98825.72
2018-11-07T02:16:29.379Z,98832.16
2018-11-07T02:19:02.178Z,98831.36
2018-11-07T02:21:33.527Z,98832.30
2018-11-07T02:24:05.446Z,98834.78
2018-11-07T02:26:37.053Z,98834.92
2018-11-07T02:29:12.870Z,98836.67
2018-11-07T02:31:46.704Z,98832.66
2018-11-07T02:34:18.400Z,98836.58
2018-11-07T02:36:49.441Z,98835.87
2018-11-07T02:39:21.032Z,98837.17
2018-11-07T02:41:53.579Z,98832.66
2018-11-07T02:44:25.254Z,98832.95
2018-11-07T02:46:56.999Z,98828.90
2018-11-07T02:49:28.311Z,98831.16
2018-11-07T02:51:59.701Z,98834.47
2018-11-07T02:54:31.101Z,98845.02
2018-11-07T02:57:03.134Z,98837.77
2018-11-07T02:59:34.792Z,98832.84
2018-11-07T03:02:06.499Z,98828.19
2018-11-07T03:04:38.136Z,98847.67
2018-11-07T03:07:10.866Z,98844.20
2018-11-07T03:09:42.147Z,98842.75
2018-11-07T03:12:13.915Z,98842.31
2018-11-07T03:14:45.919Z,98844.92
2018-11-07T03:17:17.303Z,98850.89
2018-11-07T03:19:48.641Z,98848.19
2018-11-07T03:22:21.025Z,98856.38
2018-11-07T03:24:52.320Z,98831.46
2018-11-07T03:27:23.751Z,98844.72
2018-11-07T03:29:55.508Z,98843.36
2018-11-07T03:32:27.070Z,98842.29
2018-11-07T03:34:58.613Z,98836.77
2018-11-07T03:37:30.506Z,98840.83
2018-11-07T03:40:03.741Z,98838.61
2018-11-07T03:42:36.341Z,98842.31
2018-11-07T03:45:08.265Z,98841.81
2018-11-07T03:47:39.898Z,98842.02
2018-11-07T03:50:10.999Z,98840.13
2018-11-07T03:52:42.764Z,98844.70
2018-11-07T03:55:15.256Z,98843.75
2018-11-07T03:57:47.794Z,98842.80
2018-11-07T04:00:19.300Z,98831.00
2018-11-07T04:02:51.120Z,98838.98
2018-11-07T04:05:22.473Z,98843.77
2018-11-07T04:07:55.522Z,98843.91
2018-11-07T04:10:26.978Z,98846.86
2018-11-07T04:12:58.937Z,98849.30
2018-11-07T04:15:30.926Z,98847.92
2018-11-07T04:18:03.793Z,98856.91
2018-11-07T04:20:35.781Z,98854.30
2018-11-07T04:23:07.546Z,98855.56
2018-11-07T04:25:39.180Z,98858.10
2018-11-07T04:28:12.020Z,98854.83
2018-11-07T04:30:43.555Z,98856.03
2018-11-07T04:33:14.878Z,98852.52
2018-11-07T04:35:46.505Z,98855.77
2018-11-07T04:38:18.459Z,98852.49
2018-11-07T04:40:50.031Z,98856.84
2018-11-07T04:43:21.365Z,98862.97
2018-11-07T04:45:53.758Z,98861.86
2018-11-07T04:48:25.690Z,98857.41
2018-11-07T04:50:57.703Z,98863.13
2018-11-07T04:53:30.895Z,98871.66
2018-11-07T04:56:02.234Z,98871.79
2018-11-07T04:58:35.762Z,98870.88
2018-11-07T05:01:08.481Z,98873.31
2018-11-07T05:03:39.968Z,98883.38
2018-11-07T05:06:11.779Z,98891.09
2018-11-07T05:08:43.222Z,98889.22
2018-11-07T05:11:15.391Z,98894.33
2018-11-07T05:13:48.619Z,98894.77
2018-11-07T05:16:21.291Z,98885.83
2018-11-07T05:18:53.794Z,98881.44
2018-11-07T05:21:24.762Z,98885.34
2018-11-07T05:23:56.447Z,98886.66
2018-11-07T05:26:28.274Z,98890.87
2018-11-07T05:28:59.939Z,98900.69
2018-11-07T05:31:31.077Z,98893.67
2018-11-07T05:34:02.142Z,98884.74
2018-11-07T05:36:34.199Z,98889.95
2018-11-07T05:39:06.093Z,98896.91
2018-11-07T05:41:37.975Z,98896.09
2018-11-07T05:44:09.729Z,98878.08
2018-11-07T05:46:41.656Z,98905.12
2018-11-07T05:49:13.042Z,98904.44
2018-11-07T05:51:44.131Z,98813.85
2018-11-07T05:54:15.481Z,98917.36
2018-11-07T05:56:47.393Z,98921.20
2018-11-07T05:59:18.410Z,98924.00
2018-11-07T06:01:50.057Z,98931.52
2018-11-07T06:04:22.978Z,98936.16
2018-11-07T06:06:54.964Z,98934.44
2018-11-07T06:09:26.491Z,98940.56
2018-11-07T06:11:58.051Z,98950.38
2018-11-07T06:14:29.353Z,98942.48
2018-11-07T06:17:00.410Z,98946.28
2018-11-07T06:19:32.432Z,98956.09
2018-11-07T06:22:03.788Z,98951.61
2018-11-07T06:24:34.777Z,98950.58
2018-11-07T06:27:06.353Z,98962.11
2018-11-07T06:29:37.977Z,98961.62
2018-11-07T06:32:09.157Z,98954.80
2018-11-07T06:34:40.262Z,98960.62
2018-11-07T06:37:12.343Z,98970.35
2018-11-07T06:39:43.796Z,98973.95
2018-11-07T06:42:14.821Z,98968.55
2018-11-07T06:44:45.838Z,98974.95
2018-11-07T06:47:17.580Z,98974.26
2018-11-07T06:49:49.605Z,98972.16
2018-11-07T06:52:20.610Z,98980.55
2018-11-07T06:54:52.415Z,98976.83
2018-11-07T06:57:24.236Z,98973.41
2018-11-07T06:59:56.430Z,98977.52
2018-11-07T07:02:27.872Z,98983.02
2018-11-07T07:05:00.803Z,98977.91
2018-11-07T07:07:32.487Z,98979.78
2018-11-07T07:10:04.090Z,98980.19
2018-11-07T07:12:35.833Z,98889.63
2018-11-07T07:15:08.422Z,98979.23
2018-11-07T07:17:39.911Z,98979.80
2018-11-07T07:20:14.757Z,98982.89
2018-11-07T07:22:46.447Z,98994.61
2018-11-07T07:25:18.498Z,98981.73
2018-11-07T07:27:49.676Z,98988.97
2018-11-07T07:30:22.583Z,98986.53
2018-11-07T07:32:54.971Z,98995.95
2018-11-07T07:35:27.074Z,98993.58
2018-11-07T07:37:58.968Z,98988.36
2018-11-07T07:40:30.655Z,98995.16
2018-11-07T07:43:02.426Z,98996.80
2018-11-07T07:45:34.352Z,98998.47
2018-11-07T07:48:07.134Z,98975.66
2018-11-07T07:50:38.542Z,99000.52
2018-11-07T07:53:11.276Z,99003.75
2018-11-07T07:55:43.401Z,98996.08
2018-11-07T07:58:14.527Z,98991.64
2018-11-07T08:00:45.846Z,98979.96
2018-11-07T08:03:18.514Z,98994.50
2018-11-07T08:05:49.519Z,98978.37
2018-11-07T08:08:22.035Z,98942.91
2018-11-07T08:10:55.167Z,98982.30
2018-11-07T08:13:26.979Z,98995.83
2018-11-07T08:15:58.818Z,98987.47
2018-11-07T08:18:30.252Z,98990.28
2018-11-07T08:21:04.473Z,98990.20
2018-11-07T08:23:36.239Z,98986.02
2018-11-07T08:26:07.992Z,98995.73
2018-11-07T08:28:39.662Z,98993.97
2018-11-07T08:31:10.870Z,98996.92
2018-11-07T08:33:42.230Z,99001.91
2018-11-07T08:36:14.043Z,99001.59
2018-11-07T08:38:46.700Z,99000.19
2018-11-07T08:41:17.853Z,98921.57
2018-11-07T08:43:49.144Z,98851.84
2018-11-07T08:46:22.291Z,98859.13
2018-11-07T08:48:54.305Z,99003.66
2018-11-07T08:51:25.865Z,98992.16
2018-11-07T08:53:57.115Z,98990.70
2018-11-07T08:56:29.295Z,98996.42
2018-11-07T08:59:02.046Z,98996.89
2018-11-07T09:04:06.939Z,98996.08
2018-11-07T09:06:38.102Z,99001.56
2018-11-07T09:09:13.020Z,99000.13
2018-11-07T09:11:44.228Z,99002.12
2018-11-07T09:14:15.671Z,99003.86
2018-11-07T09:16:48.467Z,99006.45
2018-11-07T09:19:21.194Z,99004.50
2018-11-07T09:21:53.441Z,99002.25
2018-11-07T09:24:26.180Z,99002.34
2018-11-07T09:26:58.196Z,99003.48
2018-11-07T09:29:31.368Z,98987.08
2018-11-07T09:32:15.175Z,99012.39
2018-11-07T09:34:48.041Z,99017.34
2018-11-07T09:37:19.000Z,99015.20
2018-11-07T09:39:50.352Z,99006.98
2018-11-07T09:42:22.620Z,99011.38
2018-11-07T09:44:54.983Z,99009.14
2018-11-07T09:47:26.737Z,99008.34
2018-11-07T09:49:58.600Z,99004.59
2018-11-07T09:52:30.687Z,99011.30
2018-11-07T09:55:03.220Z,99006.46
2018-11-07T09:57:35.385Z,99010.03
2018-11-07T10:00:09.246Z,99009.41
2018-11-07T10:02:41.113Z,98853.77
2018-11-07T10:05:13.479Z,99009.30
2018-11-07T10:07:45.622Z,99005.17
2018-11-07T10:10:20.076Z,99006.61
2018-11-07T10:12:52.429Z,99011.94
2018-11-07T10:15:25.620Z,99003.61
2018-11-07T10:17:56.991Z,99000.28
2018-11-07T10:20:28.509Z,99001.41
2018-11-07T10:23:00.099Z,99003.34
2018-11-07T10:25:31.734Z,99005.59
2018-11-07T10:28:05.439Z,99002.20
2018-11-07T10:30:36.040Z,99003.65
2018-11-07T10:33:07.680Z,99004.50
2018-11-07T10:35:38.747Z,99002.77
2018-11-07T10:38:10.276Z,98999.91
2018-11-07T10:40:41.291Z,98932.05
2018-11-07T10:43:12.332Z,99002.17
2018-11-07T10:45:44.130Z,98947.59
2018-11-07T10:48:15.188Z,99009.19
2018-11-07T10:50:46.524Z,99009.77
2018-11-07T10:53:18.004Z,99002.71
2018-11-07T10:55:49.521Z,99005.44
2018-11-07T10:58:20.972Z,98970.77
2018-11-07T11:00:58.153Z,99008.22
2018-11-07T11:03:30.901Z,99002.44
2018-11-07T11:06:03.703Z,99010.91
2018-11-07T11:08:35.130Z,99012.78
2018-11-07T11:11:06.491Z,99004.34
2018-11-07T11:13:40.179Z,99007.26
2018-11-07T11:16:12.864Z,99008.60
2018-11-07T11:18:44.441Z,99001.76
2018-11-07T11:21:15.611Z,99008.92
2018-11-07T11:23:46.972Z,98922.03
2018-11-07T11:26:19.144Z,99001.56
2018-11-07T11:28:50.493Z,99004.24
2018-11-07T11:31:21.548Z,99006.62
2018-11-07T11:33:54.108Z,99002.67
2018-11-07T11:36:26.019Z,98996.62
2018-11-07T11:38:57.883Z,99005.91
2018-11-07T11:41:30.794Z,98998.80
2018-11-07T11:44:02.403Z,98998.81
2018-11-07T11:46:34.210Z,98997.77
2018-11-07T11:49:06.384Z,99000.15
2018-11-07T11:51:37.592Z,99002.81
2018-11-07T11:54:09.511Z,99004.13
2018-11-07T11:56:40.528Z,99003.33
2018-11-07T11:59:12.573Z,98998.56
2018-11-07T12:01:43.497Z,98991.41
2018-11-07T12:04:14.572Z,98986.92
2018-11-07T12:06:46.785Z,98982.41
2018-11-07T12:09:17.860Z,98983.47
2018-11-07T12:11:49.179Z,98987.17
2018-11-07T12:14:21.411Z,98984.53
2018-11-07T12:16:53.318Z,98991.65
2018-11-07T12:19:24.620Z,98934.47
2018-11-07T12:21:55.534Z,98981.05
2018-11-07T12:24:27.145Z,98981.04
2018-11-07T12:26:58.942Z,98979.18
2018-11-07T12:29:29.959Z,98979.16
2018-11-07T12:32:01.449Z,98981.55
2018-11-07T12:34:32.623Z,98895.00
2018-11-07T12:37:06.007Z,98976.48
2018-11-07T12:39:37.833Z,98977.51
2018-11-07T12:42:10.272Z,98973.53
2018-11-07T12:44:41.354Z,98976.19
2018-11-07T12:47:12.736Z,98971.14
2018-11-07T12:49:43.934Z,98968.73
2018-11-07T12:52:15.636Z,98971.63
2018-11-07T12:54:47.802Z,98967.92
2018-11-07T12:57:19.446Z,98962.61
2018-11-07T12:59:51.033Z,98962.34
2018-11-07T13:02:23.153Z,98954.06
2018-11-07T13:04:54.276Z,98962.80
2018-11-07T13:07:27.692Z,98940.83
2018-11-07T13:09:59.298Z,98961.67
2018-11-07T13:12:30.531Z,98963.55
2018-11-07T13:15:02.275Z,98960.88
2018-11-07T13:17:34.049Z,98961.10
2018-11-07T13:20:06.590Z,98968.27
2018-11-07T13:22:37.577Z,98970.66
2018-11-07T13:25:11.556Z,98965.08
2018-11-07T13:27:43.624Z,98967.44
2018-11-07T13:30:16.706Z,98965.08
2018-11-07T13:32:48.023Z,98971.45
2018-11-07T13:35:19.523Z,98969.33
2018-11-07T13:37:52.494Z,98967.20
2018-11-07T13:40:26.422Z,98968.03
2018-11-07T13:42:59.828Z,98976.50
2018-11-07T13:45:32.670Z,98979.15
2018-11-07T13:48:05.702Z,98986.61
2018-11-07T13:50:39.264Z,98985.05
2018-11-07T13:53:12.577Z,98981.90
2018-11-07T13:55:44.666Z,98985.11
2018-11-07T13:58:16.032Z,98979.33
2018-11-07T14:00:48.030Z,98979.37
2018-11-07T14:03:19.120Z,98969.84
2018-11-07T14:05:51.142Z,98970.13
2018-11-07T14:08:22.169Z,98970.14
2018-11-07T14:10:54.334Z,98981.27
2018-11-07T14:13:25.731Z,98982.09
2018-11-07T14:15:59.092Z,98976.30
2018-11-07T14:18:31.341Z,98894.27
2018-11-07T14:21:02.815Z,98992.20
2018-11-07T14:23:33.826Z,98991.14
2018-11-07T14:26:06.336Z,98990.62
2018-11-07T14:28:37.638Z,98995.66
2018-11-07T14:31:08.825Z,98992.73
2018-11-07T14:33:40.500Z,98999.03
2018-11-07T14:36:11.642Z,99001.94
2018-11-07T14:38:43.566Z,99003.48
2018-11-07T14:41:14.987Z,99008.75
2018-11-07T14:43:47.057Z,99008.45
2018-11-07T14:46:19.450Z,99010.27
2018-11-07T14:48:51.102Z,99000.71
2018-11-07T14:51:23.789Z,98998.55
2018-11-07T14:53:54.938Z,99005.89
2018-11-07T14:56:27.007Z,99001.86
2018-11-07T14:58:58.349Z,99005.75
2018-11-07T15:01:29.745Z,99002.47
2018-11-07T15:04:00.924Z,99008.20
2018-11-07T15:06:32.300Z,99007.55
2018-11-07T15:09:03.624Z,99001.41
2018-11-07T15:11:36.208Z,99003.41
2018-11-07T15:14:08.481Z,99001.18
2018-11-07T15:16:40.567Z,99004.22
2018-11-07T15:19:12.262Z,98997.73
2018-11-07T15:21:43.526Z,99000.47
2018-11-07T15:24:15.120Z,99001.36
2018-11-07T15:26:46.852Z,98995.19
2018-11-07T15:29:18.627Z,99002.94
2018-11-07T15:31:50.406Z,99012.00
2018-11-07T15:34:22.371Z,99001.00
2018-11-07T15:36:53.899Z,99005.05
2018-11-07T15:39:25.040Z,99009.84
2018-11-07T15:41:56.319Z,99018.92
2018-11-07T15:44:27.783Z,99023.75
2018-11-07T15:46:59.455Z,99023.80
2018-11-07T15:49:31.497Z,99026.76
2018-11-07T15:52:04.496Z,99022.88
2018-11-07T15:54:37.788Z,99022.20
2018-11-07T15:57:10.930Z,99036.23
2018-11-07T15:59:42.854Z,99034.75
2018-11-07T16:02:14.235Z,99034.80
2018-11-07T16:04:49.178Z,99047.56
2018-11-07T16:07:22.262Z,99052.66
2018-11-07T16:09:55.199Z,99052.77
2018-11-07T16:12:27.183Z,99056.03
2018-11-07T16:14:59.213Z,99063.30
2018-11-07T16:17:31.894Z,99065.77
2018-11-07T16:20:05.907Z,99056.17
2018-11-07T16:22:39.407Z,99056.27
2018-11-07T16:25:12.431Z,99054.55
2018-11-07T16:27:45.187Z,99058.36
2018-11-07T16:30:18.680Z,99055.27
2018-11-07T16:32:52.664Z,99057.20
2018-11-07T16:35:26.235Z,99068.17
2018-11-07T16:37:58.467Z,99072.05
2018-11-07T16:40:30.067Z,99072.44
2018-11-07T16:43:01.971Z,99069.59
2018-11-07T16:45:33.922Z,99069.88
2018-11-07T16:48:06.636Z,99084.25
2018-11-07T16:50:42.201Z,99085.67
2018-11-07T16:53:15.749Z,99087.67
2018-11-07T16:55:47.809Z,99086.53
2018-11-07T16:58:21.524Z,99089.77
2018-11-07T17:00:53.515Z,99086.73
2018-11-07T17:03:26.445Z,99083.98
2018-11-07T17:05:57.955Z,99090.83
2018-11-07T17:08:30.287Z,99091.61
2018-11-07T17:11:03.186Z,99104.05
2018-11-07T17:13:38.292Z,99101.52
2018-11-07T17:16:10.793Z,99104.28
2018-11-07T17:18:42.693Z,99110.71
2018-11-07T17:21:13.820Z,99121.16
2018-11-07T17:23:47.780Z,99121.59
2018-11-07T17:26:19.427Z,99123.87
2018-11-07T17:28:51.241Z,99134.28
2018-11-07T17:31:22.865Z,99140.48
2018-11-07T17:33:54.942Z,99138.08
2018-11-07T17:36:29.811Z,99138.50
2018-11-07T17:39:01.660Z,99144.28
2018-11-07T17:41:33.619Z,99146.11
2018-11-07T17:44:06.503Z,99152.88
2018-11-07T17:46:38.120Z,99148.14
2018-11-07T17:49:09.766Z,99143.32
2018-11-07T17:51:41.236Z,99154.27
2018-11-07T17:54:14.973Z,99158.91
2018-11-07T17:56:47.412Z,99160.73
2018-11-07T17:59:21.094Z,99161.53
2018-11-07T18:01:53.223Z,99159.50
2018-11-07T18:04:24.236Z,99162.21
2018-11-07T18:06:56.928Z,99165.39
2018-11-07T18:09:28.344Z,99165.48
2018-11-07T18:12:01.340Z,99162.27
2018-11-07T18:14:34.097Z,99166.89
2018-11-07T18:17:06.960Z,99172.22
2018-11-07T18:19:38.616Z,99164.01
2018-11-07T18:22:10.010Z,99172.59
2018-11-07T18:24:41.752Z,99179.16
2018-11-07T18:27:13.432Z,99177.84
2018-11-07T18:29:44.512Z,99180.68
2018-11-07T18:32:15.647Z,99182.95
2018-11-07T18:34:48.413Z,99181.85
2018-11-07T18:37:20.534Z,99186.30
2018-11-07T18:39:51.735Z,99182.95
2018-11-07T18:42:23.705Z,99185.50
2018-11-07T18:44:54.945Z,99179.38
2018-11-07T18:47:26.486Z,99186.11
2018-11-07T18:49:58.066Z,99187.00
2018-11-07T18:52:30.063Z,99188.31
2018-11-07T18:55:02.690Z,99191.06
2018-11-07T18:57:33.718Z,99197.46
2018-11-07T19:00:05.524Z,99198.94
2018-11-07T19:02:37.951Z,99200.46
2018-11-07T19:05:11.325Z,99203.45
2018-11-07T19:07:43.513Z,99202.02
2018-11-07T19:10:19.710Z,99209.43
2018-11-07T19:12:51.943Z,99206.89
2018-11-07T19:15:24.447Z,99218.40
2018-11-07T19:17:57.936Z,99226.56
2018-11-07T19:20:30.692Z,99226.27
2018-11-07T19:23:03.183Z,99233.93
2018-11-07T19:25:35.244Z,99243.11
2018-11-07T19:28:07.671Z,99243.38
2018-11-07T19:30:39.785Z,99241.80
2018-11-07T19:33:12.157Z,99241.50
2018-11-07T19:35:44.670Z,99247.20
2018-11-07T19:38:17.477Z,99245.09
2018-11-07T19:40:48.745Z,99246.31
2018-11-07T19:43:20.661Z,99254.39
2018-11-07T19:45:54.621Z,99252.08
2018-11-07T19:48:27.182Z,99243.41
2018-11-07T19:50:59.217Z,99245.83
2018-11-07T19:53:30.798Z,99253.45
2018-11-07T19:56:07.697Z,99251.33
2018-11-07T19:58:39.317Z,99249.25
2018-11-07T20:01:11.093Z,99246.63
2018-11-07T20:03:42.174Z,99260.25
2018-11-07T20:06:14.542Z,99260.00
2018-11-07T20:08:45.636Z,99245.07
2018-11-07T20:11:18.670Z,99269.86
2018-11-07T20:13:50.739Z,99275.11
2018-11-07T20:16:24.279Z,99279.26
2018-11-07T20:24:48.149Z,99288.72
2018-11-07T20:27:20.377Z,99291.28
2018-11-07T20:29:52.231Z,99294.62
2018-11-07T20:32:24.302Z,99293.22
2018-11-07T20:34:56.339Z,99303.44
2018-11-07T20:37:29.040Z,99305.38
2018-11-07T20:40:00.635Z,99302.55
2018-11-07T20:42:35.276Z,99305.61
2018-11-07T20:45:09.476Z,99311.75
2018-11-07T20:47:42.403Z,99307.52
2018-11-07T20:50:17.151Z,99319.32
2018-11-07T20:52:50.022Z,99321.34
2018-11-07T20:55:24.605Z,99333.09
2018-11-07T20:57:57.590Z,99246.53
2018-11-07T21:00:29.464Z,99330.67
2018-11-07T21:03:05.069Z,99330.80
2018-11-07T21:05:38.517Z,99278.58
2018-11-07T21:08:10.554Z,99331.80
2018-11-07T21:10:42.371Z,99343.70
2018-11-07T21:13:14.020Z,99351.56
2018-11-07T21:15:46.116Z,99349.75
2018-11-07T21:18:18.839Z,99358.63
2018-11-07T21:20:50.587Z,99362.80
2018-11-07T21:23:21.904Z,99367.73
2018-11-07T21:25:54.393Z,99372.17
2018-11-07T21:28:27.613Z,99365.06
2018-11-07T21:31:00.907Z,99368.22
2018-11-07T21:33:33.254Z,99376.35
2018-11-07T21:36:07.789Z,99308.20
2018-11-07T21:38:39.763Z,99377.44
2018-11-07T21:41:11.716Z,99375.93
2018-11-07T21:43:47.083Z,99372.84
2018-11-07T21:46:24.365Z,99378.13
2018-11-07T21:48:55.745Z,99375.03
2018-11-07T21:51:30.657Z,99279.88
2018-11-07T21:54:04.152Z,99386.05
2018-11-07T21:56:35.839Z,99384.27
2018-11-07T21:59:07.890Z,99381.14
2018-11-07T22:01:40.716Z,99380.74
2018-11-07T22:04:13.404Z,99383.86
2018-11-07T22:06:44.686Z,99389.34
2018-11-07T22:09:17.788Z,99391.25
2018-11-07T22:11:51.223Z,99390.87
2018-11-07T22:14:23.462Z,99393.69
2018-11-07T22:16:56.844Z,99298.73
2018-11-07T22:19:28.548Z,99400.77
2018-11-07T22:21:59.932Z,99397.06
2018-11-07T22:24:31.775Z,99392.64
2018-11-07T22:27:03.063Z,99401.39
2018-11-07T22:29:36.168Z,99398.91
2018-11-07T22:32:07.517Z,99402.65
2018-11-07T22:34:39.845Z,99399.63
2018-11-07T22:37:12.257Z,99404.28
2018-11-07T22:39:43.606Z,99401.36
2018-11-07T22:42:15.364Z,99403.98
2018-11-07T22:44:47.666Z,99406.48
2018-11-07T22:47:21.314Z,99404.09
2018-11-07T22:49:55.568Z,99403.69
2018-11-07T22:52:27.540Z,99402.79
2018-11-07T22:54:59.915Z,99403.47
2018-11-07T22:57:31.582Z,99395.42
2018-11-07T23:00:04.340Z,99403.16
2018-11-07T23:02:37.736Z,99411.69
2018-11-07T23:05:20.418Z,99415.22
2018-11-07T23:07:53.219Z,99411.36
2018-11-07T23:10:25.716Z,99397.23
2018-11-07T23:12:57.673Z,99415.27
2018-11-07T23:15:34.311Z,99414.87
2018-11-07T23:18:12.842Z,99419.06
2018-11-07T23:20:45.278Z,99419.67
2018-11-07T23:23:18.731Z,99427.63
2018-11-07T23:25:49.892Z,99429.52
2018-11-07T23:28:21.893Z,99432.31
2018-11-07T23:30:53.995Z,99441.68
2018-11-07T23:33:26.178Z,99430.30
2018-11-07T23:35:58.188Z,99433.16
2018-11-07T23:38:31.251Z,99444.31
2018-11-07T23:41:03.497Z,99445.93
2018-11-07T23:43:34.633Z,99441.77
2018-11-07T23:46:06.311Z,99445.13
2018-11-07T23:48:38.466Z,99453.28
2018-11-07T23:51:10.241Z,99455.67
2018-11-07T23:53:42.241Z,99456.28
2018-11-07T23:56:13.270Z,99460.54
2018-11-07T23:58:44.333Z,99463.33
